sensor_id;sensor_type;location;lat;lon;timestamp;pressure;altitude;pressure_sealevel;temperature;humidity
34921;BME280;21128;50.016;20.002;2023-01-30T00:01:00;99008.05;;;-2.80;100.00
34921;BME280;21128;50.016;20.002;2023-01-30T00:03:28;99005.42;;;-2.79;100.00
34921;BME280;21128;50.016;20.002;2023-01-30T00:05:55;98998.61;;;-2.80;100.00
34921;BME280;21128;50.016;20.002;2023-01-30T00:08:22;98987.55;;;-2.82;100.00
34921;BME280;21128;50.016;20.002;2023-01-30T00:10:49;98982.46;;;-2.84;100.00
34921;BME280;21128;50.016;20.002;2023-01-30T00:13:16;98975.67;;;-2.86;100.00
34921;BME280;21128;50.016;20.002;2023-01-30T00:15:43;98968.08;;;-2.89;100.00
34921;BME280;21128;50.016;20.002;2023-01-30T00:18:10;98956.13;;;-2.90;100.00
34921;BME280;21128;50.016;20.002;2023-01-30T00:20:37;98950.20;;;-2.92;100.00
34921;BME280;21128;50.016;20.002;2023-01-30T00:23:04;98953.67;;;-2.93;100.00
34921;BME280;21128;50.016;20.002;2023-01-30T00:25:31;98945.16;;;-2.95;100.00
34921;BME280;21128;50.016;20.002;2023-01-30T00:28:00;98938.40;;;-2.98;100.00
34921;BME280;21128;50.016;20.002;2023-01-30T00:30:28;98934.22;;;-3.00;100.00
34921;BME280;21128;50.016;20.002;2023-01-30T00:32:56;98928.11;;;-2.98;100.00
34921;BME280;21128;50.016;20.002;2023-01-30T00:35:23;98922.13;;;-2.98;100.00
34921;BME280;21128;50.016;20.002;2023-01-30T00:37:58;98917.83;;;-2.98;100.00
34921;BME280;21128;50.016;20.002;2023-01-30T00:40:26;98917.77;;;-2.96;100.00
34921;BME280;21128;50.016;20.002;2023-01-30T00:42:54;98910.12;;;-2.98;100.00
34921;BME280;21128;50.016;20.002;2023-01-30T00:45:42;98894.63;;;-2.96;100.00
34921;BME280;21128;50.016;20.002;2023-01-30T00:48:29;98895.47;;;-2.96;100.00
34921;BME280;21128;50.016;20.002;2023-01-30T00:50:56;98891.16;;;-2.95;100.00
34921;BME280;21128;50.016;20.002;2023-01-30T00:53:23;98880.84;;;-2.94;100.00
34921;BME280;21128;50.016;20.002;2023-01-30T00:55:51;98872.23;;;-2.93;100.00
34921;BME280;21128;50.016;20.002;2023-01-30T00:58:20;98859.31;;;-2.91;100.00
34921;BME280;21128;50.016;20.002;2023-01-30T01:00:48;98860.92;;;-2.89;100.00
34921;BME280;21128;50.016;20.002;2023-01-30T01:03:16;98851.41;;;-2.87;100.00
34921;BME280;21128;50.016;20.002;2023-01-30T01:05:43;98848.00;;;-2.87;100.00
34921;BME280;21128;50.016;20.002;2023-01-30T01:08:11;98844.53;;;-2.86;100.00
34921;BME280;21128;50.016;20.002;2023-01-30T01:10:38;98837.72;;;-2.87;100.00
34921;BME280;21128;50.016;20.002;2023-01-30T01:13:05;98835.94;;;-2.85;100.00
34921;BME280;21128;50.016;20.002;2023-01-30T01:15:33;98833.38;;;-2.85;100.00
34921;BME280;21128;50.016;20.002;2023-01-30T01:18:00;98829.90;;;-2.84;100.00
34921;BME280;21128;50.016;20.002;2023-01-30T01:20:27;98823.02;;;-2.84;100.00
34921;BME280;21128;50.016;20.002;2023-01-30T01:22:55;98810.94;;;-2.81;100.00
34921;BME280;21128;50.016;20.002;2023-01-30T01:25:24;98815.11;;;-2.79;100.00
34921;BME280;21128;50.016;20.002;2023-01-30T01:27:51;98811.64;;;-2.78;100.00
34921;BME280;21128;50.016;20.002;2023-01-30T01:30:18;98801.35;;;-2.78;100.00
34921;BME280;21128;50.016;20.002;2023-01-30T01:32:45;98795.34;;;-2.77;100.00
34921;BME280;21128;50.016;20.002;2023-01-30T01:35:12;98795.34;;;-2.77;100.00
34921;BME280;21128;50.016;20.002;2023-01-30T01:37:39;98803.92;;;-2.78;100.00
34921;BME280;21128;50.016;20.002;2023-01-30T01:40:07;98792.87;;;-2.80;100.00
34921;BME280;21128;50.016;20.002;2023-01-30T01:42:54;98780.98;;;-2.82;100.00
34921;BME280;21128;50.016;20.002;2023-01-30T01:45:22;98779.23;;;-2.82;100.00
34921;BME280;21128;50.016;20.002;2023-01-30T01:48:07;98762.14;;;-2.83;100.00
34921;BME280;21128;50.016;20.002;2023-01-30T01:53:11;98750.28;;;-2.87;100.00
34921;BME280;21128;50.016;20.002;2023-01-30T01:55:40;98749.58;;;-2.91;100.00
34921;BME280;21128;50.016;20.002;2023-01-30T01:58:14;98748.88;;;-2.94;100.00
34921;BME280;21128;50.016;20.002;2023-01-30T02:00:43;98743.00;;;-2.98;100.00
34921;BME280;21128;50.016;20.002;2023-01-30T02:03:14;98732.92;;;-3.02;100.00
34921;BME280;21128;50.016;20.002;2023-01-30T02:05:50;98731.28;;;-3.05;100.00
34921;BME280;21128;50.016;20.002;2023-01-30T02:08:25;98730.58;;;-3.08;100.00
34921;BME280;21128;50.016;20.002;2023-01-30T02:11:11;98725.51;;;-3.10;100.00
34921;BME280;21128;50.016;20.002;2023-01-30T02:13:41;98722.14;;;-3.12;100.00
34921;BME280;21128;50.016;20.002;2023-01-30T02:16:09;98707.75;;;-3.16;100.00
34921;BME280;21128;50.016;20.002;2023-01-30T02:18:39;98709.55;;;-3.18;100.00
34921;BME280;21128;50.016;20.002;2023-01-30T02:40:34;98688.75;;;-3.34;100.00
34921;BME280;21128;50.016;20.002;2023-01-30T02:43:31;98682.87;;;-3.37;100.00
34921;BME280;21128;50.016;20.002;2023-01-30T02:46:08;98682.94;;;-3.39;100.00
34921;BME280;21128;50.016;20.002;2023-01-30T02:48:45;98671.89;;;-3.41;100.00
34921;BME280;21128;50.016;20.002;2023-01-30T02:51:23;98673.69;;;-3.43;100.00
34921;BME280;21128;50.016;20.002;2023-01-30T02:53:53;98677.99;;;-3.44;100.00
34921;BME280;21128;50.016;20.002;2023-01-30T02:56:20;98663.52;;;-3.46;100.00
34921;BME280;21128;50.016;20.002;2023-01-30T02:58:50;98662.74;;;-3.48;100.00
34921;BME280;21128;50.016;20.002;2023-01-30T03:10:01;98648.59;;;-3.58;100.00
34921;BME280;21128;50.016;20.002;2023-01-30T03:15:33;98634.98;;;-3.60;100.00
34921;BME280;21128;50.016;20.002;2023-01-30T03:18:02;98644.41;;;-3.61;100.00
34921;BME280;21128;50.016;20.002;2023-01-30T03:20:30;98643.58;;;-3.61;100.00
34921;BME280;21128;50.016;20.002;2023-01-30T03:23:02;98635.08;;;-3.63;100.00
34921;BME280;21128;50.016;20.002;2023-01-30T03:25:30;98635.20;;;-3.66;100.00
34921;BME280;21128;50.016;20.002;2023-01-30T03:27:58;98626.73;;;-3.69;100.00
34921;BME280;21128;50.016;20.002;2023-01-30T03:30:27;98624.16;;;-3.69;100.00
34921;BME280;21128;50.016;20.002;2023-01-30T03:32:54;98616.45;;;-3.69;100.00
34921;BME280;21128;50.016;20.002;2023-01-30T03:35:21;98605.35;;;-3.69;100.00
34921;BME280;21128;50.016;20.002;2023-01-30T03:37:48;98606.19;;;-3.69;100.00
34921;BME280;21128;50.016;20.002;2023-01-30T03:40:16;98608.85;;;-3.72;100.00
34921;BME280;21128;50.016;20.002;2023-01-30T03:42:43;98611.55;;;-3.75;100.00
34921;BME280;21128;50.016;20.002;2023-01-30T03:45:10;98610.84;;;-3.78;100.00
34921;BME280;21128;50.016;20.002;2023-01-30T03:47:37;98608.38;;;-3.81;100.00
34921;BME280;21128;50.016;20.002;2023-01-30T03:50:04;98588.80;;;-3.84;100.00
34921;BME280;21128;50.016;20.002;2023-01-30T03:52:33;98585.39;;;-3.84;100.00
34921;BME280;21128;50.016;20.002;2023-01-30T03:55:01;98579.43;;;-3.85;100.00
34921;BME280;21128;50.016;20.002;2023-01-30T03:57:28;98591.37;;;-3.84;100.00
34921;BME280;21128;50.016;20.002;2023-01-30T03:59:55;98575.06;;;-3.83;100.00
34921;BME280;21128;50.016;20.002;2023-01-30T04:02:23;98569.03;;;-3.82;100.00
34921;BME280;21128;50.016;20.002;2023-01-30T04:04:52;98563.89;;;-3.82;100.00
34921;BME280;21128;50.016;20.002;2023-01-30T04:07:19;98555.30;;;-3.81;100.00
34921;BME280;21128;50.016;20.002;2023-01-30T04:09:46;98561.27;;;-3.80;100.00
34921;BME280;21128;50.016;20.002;2023-01-30T04:12:13;98571.59;;;-3.82;100.00
34921;BME280;21128;50.016;20.002;2023-01-30T04:14:40;98564.80;;;-3.83;100.00
34921;BME280;21128;50.016;20.002;2023-01-30T04:17:07;98557.92;;;-3.82;100.00
34921;BME280;21128;50.016;20.002;2023-01-30T04:19:34;98549.33;;;-3.81;100.00
34921;BME280;21128;50.016;20.002;2023-01-30T04:22:01;98547.59;;;-3.81;100.00
34921;BME280;21128;50.016;20.002;2023-01-30T04:24:28;98541.62;;;-3.81;100.00
34921;BME280;21128;50.016;20.002;2023-01-30T04:26:55;98541.69;;;-3.83;100.00
34921;BME280;21128;50.016;20.002;2023-01-30T04:29:22;98544.26;;;-3.83;100.00
34921;BME280;21128;50.016;20.002;2023-01-30T04:31:49;98544.26;;;-3.83;100.00
34921;BME280;21128;50.016;20.002;2023-01-30T04:34:18;98541.69;;;-3.83;100.00
34921;BME280;21128;50.016;20.002;2023-01-30T04:36:45;98536.55;;;-3.83;100.00
34921;BME280;21128;50.016;20.002;2023-01-30T04:39:12;98531.42;;;-3.83;100.00
34921;BME280;21128;50.016;20.002;2023-01-30T04:41:42;98523.66;;;-3.81;100.00
34921;BME280;21128;50.016;20.002;2023-01-30T04:44:11;98535.59;;;-3.80;100.00
34921;BME280;21128;50.016;20.002;2023-01-30T04:46:38;98536.42;;;-3.80;100.00
34921;BME280;21128;50.016;20.002;2023-01-30T04:49:05;98526.98;;;-3.79;100.00
34921;BME280;21128;50.016;20.002;2023-01-30T04:51:32;98515.88;;;-3.80;100.00
34921;BME280;21128;50.016;20.002;2023-01-30T04:53:59;98505.61;;;-3.80;100.00
34921;BME280;21128;50.016;20.002;2023-01-30T04:56:26;98505.75;;;-3.83;100.00
34921;BME280;21128;50.016;20.002;2023-01-30T04:58:53;98502.28;;;-3.82;100.00
34921;BME280;21128;50.016;20.002;2023-01-30T05:01:32;98502.28;;;-3.82;100.00
34921;BME280;21128;50.016;20.002;2023-01-30T05:04:00;98494.52;;;-3.80;100.00
34921;BME280;21128;50.016;20.002;2023-01-30T05:06:28;98502.15;;;-3.79;100.00
34921;BME280;21128;50.016;20.002;2023-01-30T05:08:57;98500.48;;;-3.80;100.00
34921;BME280;21128;50.016;20.002;2023-01-30T05:11:26;98499.58;;;-3.79;100.00
34921;BME280;21128;50.016;20.002;2023-01-30T05:13:55;98496.98;;;-3.77;100.00
34921;BME280;21128;50.016;20.002;2023-01-30T05:16:23;98502.81;;;-3.74;100.00
34921;BME280;21128;50.016;20.002;2023-01-30T05:18:50;98491.64;;;-3.73;100.00
34921;BME280;21128;50.016;20.002;2023-01-30T05:21:20;98501.01;;;-3.72;100.00
34921;BME280;21128;50.016;20.002;2023-01-30T05:23:47;98495.88;;;-3.72;100.00
34921;BME280;21128;50.016;20.002;2023-01-30T05:26:15;98494.97;;;-3.71;100.00
34921;BME280;21128;50.016;20.002;2023-01-30T05:28:42;98486.40;;;-3.70;100.00
34921;BME280;21128;50.016;20.002;2023-01-30T05:31:11;98476.13;;;-3.70;100.00
34921;BME280;21128;50.016;20.002;2023-01-30T05:33:39;98468.47;;;-3.71;100.00
34921;BME280;21128;50.016;20.002;2023-01-30T05:36:07;98459.86;;;-3.70;100.00
34921;BME280;21128;50.016;20.002;2023-01-30T05:38:39;98450.45;;;-3.70;100.00
34921;BME280;21128;50.016;20.002;2023-01-30T05:41:06;98456.45;;;-3.71;100.00
34921;BME280;21128;50.016;20.002;2023-01-30T05:43:34;98450.56;;;-3.73;100.00
34921;BME280;21128;50.016;20.002;2023-01-30T05:46:03;98436.81;;;-3.72;100.00
34921;BME280;21128;50.016;20.002;2023-01-30T05:48:32;98433.48;;;-3.74;100.00
34921;BME280;21128;50.016;20.002;2023-01-30T05:51:00;98454.80;;;-3.72;100.00
34921;BME280;21128;50.016;20.002;2023-01-30T05:53:30;98453.89;;;-3.71;100.00
34921;BME280;21128;50.016;20.002;2023-01-30T05:56:03;98451.32;;;-3.71;100.00
34921;BME280;21128;50.016;20.002;2023-01-30T05:58:31;98462.39;;;-3.69;100.00
34921;BME280;21128;50.016;20.002;2023-01-30T06:01:04;98446.98;;;-3.69;100.00
34921;BME280;21128;50.016;20.002;2023-01-30T06:03:32;98430.67;;;-3.67;100.00
34921;BME280;21128;50.016;20.002;2023-01-30T06:06:01;98428.11;;;-3.67;100.00
34921;BME280;21128;50.016;20.002;2023-01-30T06:08:28;98421.16;;;-3.65;100.00
34921;BME280;21128;50.016;20.002;2023-01-30T06:11:04;98406.59;;;-3.65;100.00
34921;BME280;21128;50.016;20.002;2023-01-30T06:13:33;98412.45;;;-3.61;100.00
34921;BME280;21128;50.016;20.002;2023-01-30T06:16:00;98417.45;;;-3.58;100.00
34921;BME280;21128;50.016;20.002;2023-01-30T06:18:27;98411.34;;;-3.56;100.00
34921;BME280;21128;50.016;20.002;2023-01-30T06:20:54;98403.56;;;-3.54;100.00
34921;BME280;21128;50.016;20.002;2023-01-30T06:23:22;98397.48;;;-3.52;100.00
34921;BME280;21128;50.016;20.002;2023-01-30T06:25:50;98400.73;;;-3.48;100.00
34921;BME280;21128;50.016;20.002;2023-01-30T06:28:18;98397.16;;;-3.44;100.00
34921;BME280;21128;50.016;20.002;2023-01-30T06:30:45;98381.53;;;-3.40;100.00
34921;BME280;21128;50.016;20.002;2023-01-30T06:33:13;98361.69;;;-3.36;100.00
34921;BME280;21128;50.016;20.002;2023-01-30T06:35:41;98350.29;;;-3.30;100.00
34921;BME280;21128;50.016;20.002;2023-01-30T06:38:09;98327.88;;;-3.27;100.00
34921;BME280;21128;50.016;20.002;2023-01-30T06:40:37;98333.63;;;-3.22;100.00
34921;BME280;21128;50.016;20.002;2023-01-30T06:43:04;98340.31;;;-3.18;100.00
34921;BME280;21128;50.016;20.002;2023-01-30T06:45:32;98345.23;;;-3.13;100.00
34921;BME280;21128;50.016;20.002;2023-01-30T06:47:59;98330.52;;;-3.09;100.00
34921;BME280;21128;50.016;20.002;2023-01-30T06:50:27;98319.18;;;-3.05;100.00
34921;BME280;21128;50.016;20.002;2023-01-30T06:52:56;98325.03;;;-3.02;100.00
34921;BME280;21128;50.016;20.002;2023-01-30T06:55:25;98339.32;;;-2.96;100.00
34921;BME280;21128;50.016;20.002;2023-01-30T06:58:05;98335.80;;;-2.94;100.00
34921;BME280;21128;50.016;20.002;2023-01-30T07:00:33;98330.50;;;-2.91;100.00
34921;BME280;21128;50.016;20.002;2023-01-30T07:03:00;98326.04;;;-2.87;100.00
34921;BME280;21128;50.016;20.002;2023-01-30T07:05:28;98322.52;;;-2.85;100.00
34921;BME280;21128;50.016;20.002;2023-01-30T07:07:55;98317.97;;;-2.79;100.00
34921;BME280;21128;50.016;20.002;2023-01-30T07:10:22;98317.77;;;-2.75;100.00
34921;BME280;21128;50.016;20.002;2023-01-30T07:12:52;98317.48;;;-2.69;100.00
34921;BME280;21128;50.016;20.002;2023-01-30T07:15:19;98303.56;;;-2.65;100.00
34921;BME280;21128;50.016;20.002;2023-01-30T07:17:46;98279.37;;;-2.61;100.00
34921;BME280;21128;50.016;20.002;2023-01-30T07:20:13;98279.97;;;-2.56;100.00
34921;BME280;21128;50.016;20.002;2023-01-30T07:22:40;98274.66;;;-2.52;100.00
34921;BME280;21128;50.016;20.002;2023-01-30T07:25:07;98264.99;;;-2.47;100.00
34921;BME280;21128;50.016;20.002;2023-01-30T07:27:35;98269.09;;;-2.43;100.00
34921;BME280;21128;50.016;20.002;2023-01-30T07:30:02;98271.42;;;-2.39;98.70
34921;BME280;21128;50.016;20.002;2023-01-30T07:32:29;98276.20;;;-2.31;98.97
34921;BME280;21128;50.016;20.002;2023-01-30T07:34:56;98278.39;;;-2.23;99.21
34921;BME280;21128;50.016;20.002;2023-01-30T07:37:23;98279.02;;;-2.18;98.86
34921;BME280;21128;50.016;20.002;2023-01-30T07:39:50;98279.52;;;-2.12;98.88
34921;BME280;21128;50.016;20.002;2023-01-30T07:42:17;98282.70;;;-2.07;98.63
34921;BME280;21128;50.016;20.002;2023-01-30T07:44:44;98290.95;;;-2.00;98.54
34921;BME280;21128;50.016;20.002;2023-01-30T07:47:11;98294.94;;;-1.94;98.59
34921;BME280;21128;50.016;20.002;2023-01-30T07:49:38;98296.47;;;-1.90;98.80
34921;BME280;21128;50.016;20.002;2023-01-30T07:52:05;98287.52;;;-1.83;98.92
34921;BME280;21128;50.016;20.002;2023-01-30T07:54:32;98297.48;;;-1.77;97.58
34921;BME280;21128;50.016;20.002;2023-01-30T07:56:59;98296.27;;;-1.70;98.73
34921;BME280;21128;50.016;20.002;2023-01-30T07:59:26;98292.55;;;-1.64;97.34
34921;BME280;21128;50.016;20.002;2023-01-30T08:01:53;98281.98;;;-1.60;97.72
34921;BME280;21128;50.016;20.002;2023-01-30T08:04:20;98285.08;;;-1.53;98.30
34921;BME280;21128;50.016;20.002;2023-01-30T08:06:47;98281.45;;;-1.49;97.80
34921;BME280;21128;50.016;20.002;2023-01-30T08:09:14;98282.20;;;-1.47;95.78
34921;BME280;21128;50.016;20.002;2023-01-30T08:11:40;98275.12;;;-1.44;96.42
34921;BME280;21128;50.016;20.002;2023-01-30T08:14:08;98268.91;;;-1.39;96.13
34921;BME280;21128;50.016;20.002;2023-01-30T08:16:34;98261.92;;;-1.37;95.98
34921;BME280;21128;50.016;20.002;2023-01-30T08:19:03;98258.34;;;-1.35;96.07
34921;BME280;21128;50.016;20.002;2023-01-30T08:21:31;98250.55;;;-1.33;95.63
34921;BME280;21128;50.016;20.002;2023-01-30T08:23:58;98257.19;;;-1.29;95.18
34921;BME280;21128;50.016;20.002;2023-01-30T08:26:26;98238.13;;;-1.27;96.74
34921;BME280;21128;50.016;20.002;2023-01-30T08:28:53;98229.34;;;-1.23;95.23
34921;BME280;21128;50.016;20.002;2023-01-30T08:31:22;98232.50;;;-1.18;95.27
34921;BME280;21128;50.016;20.002;2023-01-30T08:33:49;98238.91;;;-1.09;95.01
34921;BME280;21128;50.016;20.002;2023-01-30T08:36:16;98231.48;;;-0.99;95.30
34921;BME280;21128;50.016;20.002;2023-01-30T08:38:43;98235.55;;;-0.95;93.91
34921;BME280;21128;50.016;20.002;2023-01-30T08:41:10;98226.80;;;-0.93;95.71
34921;BME280;21128;50.016;20.002;2023-01-30T08:43:37;98200.77;;;-0.88;94.75
34921;BME280;21128;50.016;20.002;2023-01-30T08:46:04;98197.75;;;-0.80;93.69
34921;BME280;21128;50.016;20.002;2023-01-30T08:48:31;98197.88;;;-0.68;94.39
34921;BME280;21128;50.016;20.002;2023-01-30T08:50:58;98190.47;;;-0.44;93.21
34921;BME280;21128;50.016;20.002;2023-01-30T08:53:25;98210.06;;;-0.11;94.65
34921;BME280;21128;50.016;20.002;2023-01-30T08:55:53;98205.74;;;0.04;94.18
34921;BME280;21128;50.016;20.002;2023-01-30T08:58:20;98208.42;;;0.02;91.96
34921;BME280;21128;50.016;20.002;2023-01-30T09:00:48;98194.22;;;-0.05;92.70
34921;BME280;21128;50.016;20.002;2023-01-30T09:03:18;98189.52;;;0.02;93.58
34921;BME280;21128;50.016;20.002;2023-01-30T09:05:45;98192.83;;;0.04;92.72
34921;BME280;21128;50.016;20.002;2023-01-30T09:08:12;98181.07;;;0.41;92.37
34921;BME280;21128;50.016;20.002;2023-01-30T09:10:39;98155.93;;;0.84;92.76
34921;BME280;21128;50.016;20.002;2023-01-30T09:13:08;98153.95;;;1.02;91.56
34921;BME280;21128;50.016;20.002;2023-01-30T09:15:36;98157.53;;;1.26;89.90
34921;BME280;21128;50.016;20.002;2023-01-30T09:18:03;98159.91;;;1.42;88.19
34921;BME280;21128;50.016;20.002;2023-01-30T09:20:31;98170.52;;;1.52;89.64
34921;BME280;21128;50.016;20.002;2023-01-30T09:22:58;98159.72;;;1.45;88.98
34921;BME280;21128;50.016;20.002;2023-01-30T09:25:26;98146.89;;;1.44;89.71
34921;BME280;21128;50.016;20.002;2023-01-30T09:27:53;98157.53;;;1.39;90.38
34921;BME280;21128;50.016;20.002;2023-01-30T09:30:20;98156.59;;;1.27;89.66
34921;BME280;21128;50.016;20.002;2023-01-30T09:32:47;98157.70;;;1.10;89.81
34921;BME280;21128;50.016;20.002;2023-01-30T09:35:15;98155.78;;;1.00;89.09
34921;BME280;21128;50.016;20.002;2023-01-30T09:37:49;98138.27;;;0.91;91.09
34921;BME280;21128;50.016;20.002;2023-01-30T09:40:20;98135.17;;;0.86;90.94
34921;BME280;21128;50.016;20.002;2023-01-30T09:45:42;98132.08;;;0.66;90.49
34921;BME280;21128;50.016;20.002;2023-01-30T09:48:20;98120.28;;;0.62;90.69
34921;BME280;21128;50.016;20.002;2023-01-30T09:56:00;98122.52;;;0.54;91.12
34921;BME280;21128;50.016;20.002;2023-01-30T09:58:50;98103.05;;;0.48;91.76
34921;BME280;21128;50.016;20.002;2023-01-30T10:04:20;98104.67;;;0.37;91.78
34921;BME280;21128;50.016;20.002;2023-01-30T10:09:43;98082.34;;;0.36;92.72
34921;BME280;21128;50.016;20.002;2023-01-30T10:20:12;98050.98;;;0.27;93.23
34921;BME280;21128;50.016;20.002;2023-01-30T10:25:43;98039.51;;;0.32;94.92
34921;BME280;21128;50.016;20.002;2023-01-30T10:31:01;98035.06;;;0.34;94.03
34921;BME280;21128;50.016;20.002;2023-01-30T10:33:34;98025.66;;;0.33;94.77
34921;BME280;21128;50.016;20.002;2023-01-30T10:36:21;98018.34;;;0.39;94.06
34921;BME280;21128;50.016;20.002;2023-01-30T10:38:51;98024.89;;;0.45;94.77
34921;BME280;21128;50.016;20.002;2023-01-30T10:41:26;98006.48;;;0.49;95.77
34921;BME280;21128;50.016;20.002;2023-01-30T10:44:09;98001.75;;;0.56;94.42
34921;BME280;21128;50.016;20.002;2023-01-30T10:52:44;97991.41;;;0.56;94.36
34921;BME280;21128;50.016;20.002;2023-01-30T10:55:34;97993.89;;;0.58;94.97
34921;BME280;21128;50.016;20.002;2023-01-30T11:03:52;98001.31;;;0.49;96.32
34921;BME280;21128;50.016;20.002;2023-01-30T11:06:23;97996.97;;;0.50;96.02
34921;BME280;21128;50.016;20.002;2023-01-30T11:08:53;97996.06;;;0.51;97.44
34921;BME280;21128;50.016;20.002;2023-01-30T11:11:41;97995.20;;;0.50;98.43
34921;BME280;21128;50.016;20.002;2023-01-30T11:14:12;97976.39;;;0.48;97.96
34921;BME280;21128;50.016;20.002;2023-01-30T11:16:50;97979.48;;;0.41;99.43
34921;BME280;21128;50.016;20.002;2023-01-30T11:19:31;97973.69;;;0.37;99.44
34921;BME280;21128;50.016;20.002;2023-01-30T11:22:01;97966.98;;;0.35;99.36
34921;BME280;21128;50.016;20.002;2023-01-30T11:24:31;97958.30;;;0.36;100.00
34921;BME280;21128;50.016;20.002;2023-01-30T11:29:43;97944.44;;;0.37;100.00
34921;BME280;21128;50.016;20.002;2023-01-30T11:32:23;97944.44;;;0.37;100.00
34921;BME280;21128;50.016;20.002;2023-01-30T11:37:36;97953.18;;;0.21;100.00
34921;BME280;21128;50.016;20.002;2023-01-30T11:42:49;97942.83;;;0.09;100.00
34921;BME280;21128;50.016;20.002;2023-01-30T11:45:18;97936.91;;;0.07;100.00
34921;BME280;21128;50.016;20.002;2023-01-30T11:47:50;97924.64;;;0.10;100.00
34921;BME280;21128;50.016;20.002;2023-01-30T11:50:30;97919.05;;;0.16;100.00
34921;BME280;21128;50.016;20.002;2023-01-30T11:53:02;97917.02;;;0.21;100.00
34921;BME280;21128;50.016;20.002;2023-01-30T11:55:35;97917.73;;;0.23;100.00
34921;BME280;21128;50.016;20.002;2023-01-30T11:58:07;97920.03;;;0.28;100.00
34921;BME280;21128;50.016;20.002;2023-01-30T12:03:09;97906.07;;;0.31;100.00
34921;BME280;21128;50.016;20.002;2023-01-30T12:05:39;97900.58;;;0.22;100.00
34921;BME280;21128;50.016;20.002;2023-01-30T12:08:13;97901.61;;;0.20;100.00
34921;BME280;21128;50.016;20.002;2023-01-30T12:10:44;97884.03;;;0.12;100.00
34921;BME280;21128;50.016;20.002;2023-01-30T12:13:19;97881.73;;;0.08;100.00
34921;BME280;21128;50.016;20.002;2023-01-30T12:24:42;97887.61;;;-0.03;100.00
34921;BME280;21128;50.016;20.002;2023-01-30T12:27:17;97883.16;;;-0.01;100.00
34921;BME280;21128;50.016;20.002;2023-01-30T12:30:01;97871.00;;;0.01;100.00
34921;BME280;21128;50.016;20.002;2023-01-30T12:32:32;97874.30;;;0.03;100.00
34921;BME280;21128;50.016;20.002;2023-01-30T12:35:06;97863.97;;;0.03;100.00
34921;BME280;21128;50.016;20.002;2023-01-30T12:40:35;97876.98;;;0.02;100.00
34921;BME280;21128;50.016;20.002;2023-01-30T12:49:00;97869.86;;;0.05;100.00
34921;BME280;21128;50.016;20.002;2023-01-30T12:51:43;97854.07;;;0.10;100.00
34921;BME280;21128;50.016;20.002;2023-01-30T12:54:44;97861.89;;;0.08;100.00
34921;BME280;21128;50.016;20.002;2023-01-30T13:02:51;97868.86;;;0.20;100.00
34921;BME280;21128;50.016;20.002;2023-01-30T13:08:26;97854.28;;;0.19;100.00
34921;BME280;21128;50.016;20.002;2023-01-30T13:13:53;97849.73;;;0.23;100.00
34921;BME280;21128;50.016;20.002;2023-01-30T13:19:20;97836.41;;;0.29;100.00
34921;BME280;21128;50.016;20.002;2023-01-30T13:22:08;97834.05;;;0.26;100.00
34921;BME280;21128;50.016;20.002;2023-01-30T13:27:15;97841.69;;;0.27;100.00
34921;BME280;21128;50.016;20.002;2023-01-30T13:29:44;97842.52;;;0.28;100.00
34921;BME280;21128;50.016;20.002;2023-01-30T13:35:30;97835.16;;;0.22;100.00
34921;BME280;21128;50.016;20.002;2023-01-30T13:37:59;97834.45;;;0.20;100.00
34921;BME280;21128;50.016;20.002;2023-01-30T13:40:38;97830.39;;;0.16;100.00
34921;BME280;21128;50.016;20.002;2023-01-30T13:45:51;97820.17;;;0.14;100.00
34921;BME280;21128;50.016;20.002;2023-01-30T13:48:42;97822.75;;;0.14;100.00
34921;BME280;21128;50.016;20.002;2023-01-30T13:51:44;97817.58;;;0.14;100.00
34921;BME280;21128;50.016;20.002;2023-01-30T13:54:56;97832.90;;;0.17;100.00
34921;BME280;21128;50.016;20.002;2023-01-30T14:08:32;97827.19;;;0.25;100.00
34921;BME280;21128;50.016;20.002;2023-01-30T14:11:01;97836.70;;;0.24;100.00
34921;BME280;21128;50.016;20.002;2023-01-30T14:13:28;97824.53;;;0.26;100.00
34921;BME280;21128;50.016;20.002;2023-01-30T14:15:58;97827.83;;;0.28;100.00
34921;BME280;21128;50.016;20.002;2023-01-30T14:24:00;97824.61;;;0.25;100.00
34921;BME280;21128;50.016;20.002;2023-01-30T14:59:18;97817.80;;;0.62;100.00
34921;BME280;21128;50.016;20.002;2023-01-30T15:01:57;97823.69;;;0.64;100.00
34921;BME280;21128;50.016;20.002;2023-01-30T15:04:32;97830.31;;;0.68;100.00
34921;BME280;21128;50.016;20.002;2023-01-30T15:07:08;97834.44;;;0.71;100.00
34921;BME280;21128;50.016;20.002;2023-01-30T15:09:40;97833.39;;;0.73;100.00
34921;BME280;21128;50.016;20.002;2023-01-30T15:12:33;97828.11;;;0.75;100.00
34921;BME280;21128;50.016;20.002;2023-01-30T15:15:27;97835.67;;;0.78;100.00
34921;BME280;21128;50.016;20.002;2023-01-30T15:20:35;97844.75;;;0.83;100.00
34921;BME280;21128;50.016;20.002;2023-01-30T15:28:37;97840.81;;;0.91;100.00
34921;BME280;21128;50.016;20.002;2023-01-30T15:31:21;97846.73;;;0.93;100.00
34921;BME280;21128;50.016;20.002;2023-01-30T15:33:51;97856.85;;;0.96;100.00
34921;BME280;21128;50.016;20.002;2023-01-30T15:36:39;97854.98;;;0.98;100.00
34921;BME280;21128;50.016;20.002;2023-01-30T15:39:25;97865.22;;;0.99;100.00
34921;BME280;21128;50.016;20.002;2023-01-30T15:42:00;97856.63;;;0.99;100.00
34921;BME280;21128;50.016;20.002;2023-01-30T15:49:56;97863.56;;;0.98;100.00
34921;BME280;21128;50.016;20.002;2023-01-30T15:52:36;97865.44;;;0.96;100.00
34921;BME280;21128;50.016;20.002;2023-01-30T15:55:12;97877.55;;;0.96;100.00
34921;BME280;21128;50.016;20.002;2023-01-30T15:57:44;97874.25;;;0.94;100.00
34921;BME280;21128;50.016;20.002;2023-01-30T16:00:21;97865.66;;;0.93;100.00
34921;BME280;21128;50.016;20.002;2023-01-30T16:02:50;97867.50;;;0.91;100.00
34921;BME280;21128;50.016;20.002;2023-01-30T16:05:20;97867.73;;;0.88;100.00
34921;BME280;21128;50.016;20.002;2023-01-30T16:07:50;97873.94;;;0.86;100.00
34921;BME280;21128;50.016;20.002;2023-01-30T16:10:20;97875.78;;;0.83;100.00